TTW794 RCNN-RJFT
Flight info
| Callsign | TTW794 |
|---|---|
| Flight time | 2h 1m |
| Altitude | 37000 |
| Route | TNN W4 ANLOT M750 MOMPA KOSHI Y501 SASIK G339 HINAG |
| Aircraft | A320/M-SDE3FGHIRWY/LB1 |
Departure
| Time | 2026-04-26 11:17 |
|---|---|
| Airport | Tainan International Airport / Tainan Air Base (RCNN) |
Arrival
| Time | 2026-04-26 13:18 |
|---|---|
| Airport | Kumamoto Airport (RJFT) |
| Time | Latitude | Longitude | Altitude | Speed | Heading |
|---|---|---|---|---|---|
| 2026-04-26 11:05 | 22.95046 | 120.21013 | 65 ft | 0 kts | 269° |
| 2026-04-26 11:11 | 22.95046 | 120.21014 | 65 ft | 2 kts | 269° |
| 2026-04-26 11:11 | 22.95046 | 120.21041 | 62 ft | 4 kts | 269° |
| 2026-04-26 11:11 | 22.95046 | 120.21065 | 62 ft | 4 kts | 260° |
| 2026-04-26 11:12 | 22.95056 | 120.21087 | 58 ft | 4 kts | 199° |
| 2026-04-26 11:12 | 22.95079 | 120.21090 | 58 ft | 1 kts | 178° |
| 2026-04-26 11:12 | 22.95080 | 120.21090 | 57 ft | 0 kts | 178° |
| 2026-04-26 11:13 | 22.95077 | 120.21090 | 58 ft | 3 kts | 178° |
| 2026-04-26 11:13 | 22.95003 | 120.21077 | 59 ft | 20 kts | 195° |
| 2026-04-26 11:14 | 22.94837 | 120.21032 | 59 ft | 26 kts | 194° |
| 2026-04-26 11:14 | 22.94650 | 120.20999 | 59 ft | 28 kts | 178° |
| 2026-04-26 11:14 | 22.94458 | 120.21004 | 56 ft | 27 kts | 179° |
| 2026-04-26 11:14 | 22.94263 | 120.21008 | 51 ft | 28 kts | 178° |
| 2026-04-26 11:15 | 22.94061 | 120.21013 | 53 ft | 29 kts | 179° |
| 2026-04-26 11:15 | 22.93877 | 120.21017 | 51 ft | 24 kts | 179° |
| 2026-04-26 11:15 | 22.93730 | 120.21011 | 49 ft | 16 kts | 213° |
| 2026-04-26 11:15 | 22.93718 | 120.20947 | 49 ft | 8 kts | 272° |
| 2026-04-26 11:16 | 22.93718 | 120.20854 | 49 ft | 16 kts | 269° |
| 2026-04-26 11:16 | 22.93779 | 120.20788 | 49 ft | 10 kts | 1° |
| 2026-04-26 11:16 | 22.93866 | 120.20786 | 49 ft | 25 kts | 359° |
| 2026-04-26 11:16 | 22.94289 | 120.20775 | 54 ft | 93 kts | 359° |
| 2026-04-26 11:17 | 22.95115 | 120.20755 | 65 ft | 142 kts | 359° |
| 2026-04-26 11:17 | 22.96185 | 120.20743 | 449 ft | 155 kts | 0° |
| 2026-04-26 11:17 | 22.97257 | 120.20726 | 1225 ft | 153 kts | 358° |
| 2026-04-26 11:17 | 22.98323 | 120.20713 | 1997 ft | 155 kts | 360° |
| 2026-04-26 11:18 | 22.99453 | 120.20705 | 2449 ft | 175 kts | 360° |
| 2026-04-26 11:18 | 23.00768 | 120.20694 | 2776 ft | 198 kts | 359° |
| 2026-04-26 11:18 | 23.02218 | 120.20683 | 3189 ft | 224 kts | 0° |
| 2026-04-26 11:18 | 23.03858 | 120.20671 | 3574 ft | 248 kts | 0° |
| 2026-04-26 11:19 | 23.05667 | 120.20660 | 4023 ft | 271 kts | 0° |
| 2026-04-26 11:19 | 23.07592 | 120.20651 | 4814 ft | 279 kts | 0° |
| 2026-04-26 11:19 | 23.09547 | 120.20641 | 5690 ft | 283 kts | 360° |
| 2026-04-26 11:19 | 23.11527 | 120.20629 | 6606 ft | 285 kts | 359° |
| 2026-04-26 11:20 | 23.13521 | 120.20717 | 7452 ft | 288 kts | 8° |
| 2026-04-26 11:20 | 23.14814 | 120.21055 | 7982 ft | 291 kts | 16° |
| 2026-04-26 11:20 | 23.17402 | 120.21997 | 9083 ft | 294 kts | 17° |
| 2026-04-26 11:20 | 23.19355 | 120.22712 | 9874 ft | 298 kts | 17° |
| 2026-04-26 11:21 | 23.21356 | 120.23442 | 10314 ft | 313 kts | 17° |
| 2026-04-26 11:21 | 23.23496 | 120.24218 | 10505 ft | 335 kts | 17° |
| 2026-04-26 11:21 | 23.25739 | 120.25030 | 10972 ft | 344 kts | 17° |
| 2026-04-26 11:21 | 23.28021 | 120.25858 | 11584 ft | 348 kts | 17° |
| 2026-04-26 11:22 | 23.30331 | 120.26698 | 12230 ft | 351 kts | 17° |
| 2026-04-26 11:22 | 23.32661 | 120.27547 | 12875 ft | 354 kts | 17° |
| 2026-04-26 11:22 | 23.35010 | 120.28402 | 13507 ft | 358 kts | 17° |
| 2026-04-26 11:22 | 23.37382 | 120.29264 | 14100 ft | 361 kts | 17° |
| 2026-04-26 11:23 | 23.39771 | 120.30129 | 14669 ft | 363 kts | 16° |
| 2026-04-26 11:23 | 23.42145 | 120.30991 | 15239 ft | 365 kts | 16° |
| 2026-04-26 11:23 | 23.44565 | 120.31874 | 15816 ft | 368 kts | 16° |
| 2026-04-26 11:23 | 23.47005 | 120.32763 | 16393 ft | 370 kts | 16° |
| 2026-04-26 11:24 | 23.49455 | 120.33655 | 16968 ft | 373 kts | 16° |
| 2026-04-26 11:24 | 23.51921 | 120.34553 | 17552 ft | 375 kts | 16° |
| 2026-04-26 11:24 | 23.54404 | 120.35460 | 18122 ft | 378 kts | 16° |
| 2026-04-26 11:24 | 23.56911 | 120.36378 | 18628 ft | 380 kts | 16° |
| 2026-04-26 11:25 | 23.59433 | 120.37299 | 19100 ft | 384 kts | 15° |
| 2026-04-26 11:25 | 23.61974 | 120.38224 | 19589 ft | 387 kts | 15° |
| 2026-04-26 11:25 | 23.64454 | 120.39411 | 20062 ft | 395 kts | 29° |
| 2026-04-26 11:25 | 23.66576 | 120.41365 | 20531 ft | 404 kts | 43° |
| 2026-04-26 11:26 | 23.68528 | 120.43589 | 20992 ft | 408 kts | 43° |
| 2026-04-26 11:26 | 23.70484 | 120.45851 | 21439 ft | 411 kts | 43° |
| 2026-04-26 11:26 | 23.72448 | 120.48139 | 21877 ft | 415 kts | 43° |
| 2026-04-26 11:26 | 23.74431 | 120.50450 | 22311 ft | 419 kts | 43° |
| 2026-04-26 11:27 | 23.76431 | 120.52776 | 22754 ft | 422 kts | 43° |
| 2026-04-26 11:27 | 23.78454 | 120.55119 | 23189 ft | 426 kts | 43° |
| 2026-04-26 11:27 | 23.80495 | 120.57476 | 23580 ft | 429 kts | 43° |
| 2026-04-26 11:27 | 23.82553 | 120.59852 | 23975 ft | 432 kts | 42° |
| 2026-04-26 11:28 | 23.84620 | 120.62241 | 24380 ft | 434 kts | 42° |
| 2026-04-26 11:28 | 23.86696 | 120.64645 | 24796 ft | 436 kts | 42° |
| 2026-04-26 11:28 | 23.88751 | 120.67027 | 25186 ft | 437 kts | 42° |
| 2026-04-26 11:28 | 23.90840 | 120.69452 | 25577 ft | 439 kts | 42° |
| 2026-04-26 11:29 | 23.92940 | 120.71887 | 25977 ft | 441 kts | 42° |
| 2026-04-26 11:29 | 23.95052 | 120.74339 | 26394 ft | 443 kts | 42° |
| 2026-04-26 11:29 | 23.97173 | 120.76803 | 26779 ft | 445 kts | 42° |
| 2026-04-26 11:29 | 23.99300 | 120.79273 | 27166 ft | 446 kts | 41° |
| 2026-04-26 11:30 | 24.01438 | 120.81754 | 27555 ft | 449 kts | 41° |
| 2026-04-26 11:30 | 24.02856 | 120.83401 | 27810 ft | 450 kts | 41° |
| 2026-04-26 11:30 | 24.05731 | 120.86746 | 28363 ft | 453 kts | 41° |
| 2026-04-26 11:30 | 24.07893 | 120.89266 | 28728 ft | 455 kts | 41° |
| 2026-04-26 11:31 | 24.10067 | 120.91801 | 29129 ft | 458 kts | 41° |
| 2026-04-26 11:31 | 24.12253 | 120.94350 | 29537 ft | 460 kts | 41° |
| 2026-04-26 11:31 | 24.14446 | 120.96908 | 29958 ft | 462 kts | 41° |
| 2026-04-26 11:31 | 24.16651 | 120.99486 | 30301 ft | 465 kts | 41° |
| 2026-04-26 11:32 | 24.18867 | 121.02078 | 30616 ft | 467 kts | 41° |
| 2026-04-26 11:32 | 24.21093 | 121.04678 | 30937 ft | 470 kts | 41° |
| 2026-04-26 11:32 | 24.23305 | 121.07264 | 31315 ft | 470 kts | 41° |
| 2026-04-26 11:32 | 24.25538 | 121.09883 | 31751 ft | 470 kts | 41° |
| 2026-04-26 11:33 | 24.27770 | 121.12500 | 32210 ft | 469 kts | 40° |
| 2026-04-26 11:33 | 24.30000 | 121.15112 | 32583 ft | 469 kts | 40° |
| 2026-04-26 11:33 | 24.32228 | 121.17724 | 32999 ft | 468 kts | 40° |
| 2026-04-26 11:33 | 24.34449 | 121.20327 | 33486 ft | 467 kts | 40° |
| 2026-04-26 11:34 | 24.36665 | 121.22923 | 33930 ft | 466 kts | 40° |
| 2026-04-26 11:34 | 24.38878 | 121.25516 | 34321 ft | 465 kts | 40° |
| 2026-04-26 11:34 | 24.41094 | 121.28113 | 34659 ft | 465 kts | 40° |
| 2026-04-26 11:34 | 24.43304 | 121.30705 | 35007 ft | 465 kts | 40° |
| 2026-04-26 11:35 | 24.45519 | 121.33304 | 35400 ft | 465 kts | 40° |
| 2026-04-26 11:35 | 24.47727 | 121.35895 | 35826 ft | 465 kts | 40° |
| 2026-04-26 11:35 | 24.49933 | 121.38494 | 36185 ft | 465 kts | 40° |
| 2026-04-26 11:35 | 24.51397 | 121.40222 | 36385 ft | 465 kts | 40° |
| 2026-04-26 11:36 | 24.54342 | 121.43702 | 36818 ft | 465 kts | 40° |
| 2026-04-26 11:36 | 24.56550 | 121.46307 | 37024 ft | 466 kts | 40° |
| 2026-04-26 11:36 | 24.60953 | 121.51497 | 37049 ft | 467 kts | 40° |
| 2026-04-26 11:37 | 24.65396 | 121.56737 | 37028 ft | 469 kts | 40° |
| 2026-04-26 11:37 | 24.69843 | 121.61998 | 37052 ft | 469 kts | 40° |
| 2026-04-26 11:38 | 24.74267 | 121.67245 | 37031 ft | 468 kts | 40° |
| 2026-04-26 11:38 | 24.78701 | 121.72495 | 37024 ft | 468 kts | 40° |
| 2026-04-26 11:39 | 24.83139 | 121.77762 | 37035 ft | 469 kts | 40° |
| 2026-04-26 11:39 | 24.87577 | 121.83037 | 37044 ft | 469 kts | 40° |
| 2026-04-26 11:40 | 24.91264 | 121.87423 | 37073 ft | 470 kts | 40° |
| 2026-04-26 11:40 | 24.95699 | 121.92708 | 37055 ft | 469 kts | 40° |
| 2026-04-26 11:42 | 25.13405 | 122.13834 | 37058 ft | 467 kts | 39° |
| 2026-04-26 11:43 | 25.17804 | 122.19102 | 37052 ft | 466 kts | 39° |
| 2026-04-26 11:43 | 25.22208 | 122.24367 | 37050 ft | 466 kts | 39° |
| 2026-04-26 11:44 | 25.26605 | 122.29639 | 37049 ft | 467 kts | 39° |
| 2026-04-26 11:44 | 25.30970 | 122.34881 | 37052 ft | 467 kts | 40° |
| 2026-04-26 11:45 | 25.35365 | 122.40166 | 37069 ft | 467 kts | 39° |
| 2026-04-26 11:45 | 25.39746 | 122.45452 | 37061 ft | 466 kts | 39° |
| 2026-04-26 11:46 | 25.44133 | 122.50743 | 37058 ft | 466 kts | 39° |
| 2026-04-26 11:46 | 25.48518 | 122.56032 | 37055 ft | 466 kts | 39° |
| 2026-04-26 11:47 | 25.52894 | 122.61320 | 37082 ft | 466 kts | 39° |
| 2026-04-26 11:47 | 25.57267 | 122.66610 | 37065 ft | 465 kts | 39° |
| 2026-04-26 11:48 | 25.61632 | 122.71893 | 37060 ft | 464 kts | 39° |
| 2026-04-26 11:48 | 25.65994 | 122.77179 | 37059 ft | 465 kts | 39° |
| 2026-04-26 11:49 | 25.70351 | 122.82468 | 37054 ft | 464 kts | 39° |
| 2026-04-26 11:49 | 25.74695 | 122.87755 | 37057 ft | 461 kts | 39° |
| 2026-04-26 11:50 | 25.79009 | 122.93012 | 37055 ft | 461 kts | 39° |
| 2026-04-26 11:50 | 25.83329 | 122.98264 | 37049 ft | 461 kts | 39° |
| 2026-04-26 11:51 | 25.87651 | 123.03528 | 37048 ft | 461 kts | 39° |
| 2026-04-26 11:51 | 25.91974 | 123.08802 | 37084 ft | 461 kts | 38° |
| 2026-04-26 11:52 | 25.96291 | 123.14072 | 37071 ft | 461 kts | 38° |
| 2026-04-26 11:52 | 26.00566 | 123.19310 | 37070 ft | 460 kts | 39° |
| 2026-04-26 11:53 | 26.04868 | 123.24587 | 37059 ft | 460 kts | 39° |
| 2026-04-26 11:54 | 26.11327 | 123.32494 | 37056 ft | 461 kts | 39° |
| 2026-04-26 11:54 | 26.15630 | 123.37795 | 37077 ft | 461 kts | 38° |
| 2026-04-26 11:55 | 26.19935 | 123.43087 | 37071 ft | 460 kts | 38° |
| 2026-04-26 11:55 | 26.24231 | 123.48376 | 37069 ft | 460 kts | 38° |
| 2026-04-26 11:56 | 26.28517 | 123.53676 | 37064 ft | 460 kts | 38° |
| 2026-04-26 11:56 | 26.32796 | 123.58960 | 37060 ft | 458 kts | 38° |
| 2026-04-26 11:57 | 26.37057 | 123.64230 | 37063 ft | 457 kts | 38° |
| 2026-04-26 11:57 | 26.41318 | 123.69496 | 37054 ft | 457 kts | 38° |
| 2026-04-26 11:58 | 26.45583 | 123.74773 | 37042 ft | 458 kts | 38° |
| 2026-04-26 11:58 | 26.49826 | 123.80046 | 37059 ft | 459 kts | 38° |
| 2026-04-26 11:59 | 26.54103 | 123.85363 | 37074 ft | 460 kts | 38° |
| 2026-04-26 11:59 | 26.58378 | 123.90680 | 37071 ft | 460 kts | 38° |
| 2026-04-26 12:00 | 26.62633 | 123.95973 | 37067 ft | 460 kts | 39° |
| 2026-04-26 12:00 | 26.66898 | 124.01307 | 37065 ft | 461 kts | 39° |
| 2026-04-26 12:01 | 26.71057 | 124.06797 | 37066 ft | 463 kts | 41° |
| 2026-04-26 12:01 | 26.75149 | 124.12377 | 37064 ft | 464 kts | 41° |
| 2026-04-26 12:02 | 26.79259 | 124.17948 | 37065 ft | 463 kts | 41° |
| 2026-04-26 12:02 | 26.83387 | 124.23487 | 37065 ft | 463 kts | 41° |
| 2026-04-26 12:03 | 26.87504 | 124.29001 | 37085 ft | 464 kts | 41° |
| 2026-04-26 12:03 | 26.91651 | 124.34563 | 37075 ft | 465 kts | 42° |
| 2026-04-26 12:04 | 26.95785 | 124.40141 | 37067 ft | 465 kts | 42° |
| 2026-04-26 12:04 | 26.99921 | 124.45733 | 37066 ft | 466 kts | 42° |
| 2026-04-26 12:05 | 27.04067 | 124.51324 | 37061 ft | 466 kts | 42° |
| 2026-04-26 12:05 | 27.08219 | 124.56934 | 37085 ft | 467 kts | 43° |
| 2026-04-26 12:06 | 27.12370 | 124.62557 | 37078 ft | 468 kts | 43° |
| 2026-04-26 12:06 | 27.16492 | 124.68154 | 37074 ft | 468 kts | 43° |
| 2026-04-26 12:07 | 27.20654 | 124.73794 | 37066 ft | 468 kts | 43° |
| 2026-04-26 12:07 | 27.24818 | 124.79440 | 37079 ft | 469 kts | 43° |
| 2026-04-26 12:08 | 27.28993 | 124.85103 | 37071 ft | 470 kts | 43° |
| 2026-04-26 12:08 | 27.33129 | 124.90734 | 37067 ft | 470 kts | 43° |
| 2026-04-26 12:09 | 27.37298 | 124.96430 | 37066 ft | 470 kts | 43° |
| 2026-04-26 12:09 | 27.41465 | 125.02112 | 37081 ft | 471 kts | 44° |
| 2026-04-26 12:10 | 27.45661 | 125.07779 | 37064 ft | 472 kts | 43° |
| 2026-04-26 12:10 | 27.49880 | 125.13454 | 37070 ft | 472 kts | 44° |
| 2026-04-26 12:11 | 27.54094 | 125.19136 | 37065 ft | 472 kts | 43° |
| 2026-04-26 12:11 | 27.58277 | 125.24792 | 37062 ft | 473 kts | 44° |
| 2026-04-26 12:12 | 27.62489 | 125.30510 | 37072 ft | 474 kts | 44° |
| 2026-04-26 12:12 | 27.66705 | 125.36241 | 37061 ft | 475 kts | 44° |
| 2026-04-26 12:13 | 27.70941 | 125.41992 | 37062 ft | 476 kts | 44° |
| 2026-04-26 12:13 | 27.75173 | 125.47740 | 37061 ft | 476 kts | 44° |
| 2026-04-26 12:14 | 27.79383 | 125.53480 | 37072 ft | 477 kts | 45° |
| 2026-04-26 12:14 | 27.83614 | 125.59258 | 37064 ft | 477 kts | 45° |
| 2026-04-26 12:15 | 27.87850 | 125.65042 | 37063 ft | 478 kts | 45° |
| 2026-04-26 12:15 | 27.92087 | 125.70840 | 37064 ft | 478 kts | 45° |
| 2026-04-26 12:16 | 27.96318 | 125.76639 | 37076 ft | 478 kts | 45° |
| 2026-04-26 12:16 | 28.00562 | 125.82442 | 37066 ft | 479 kts | 45° |
| 2026-04-26 12:17 | 28.04805 | 125.88252 | 37061 ft | 479 kts | 45° |
| 2026-04-26 12:17 | 28.09044 | 125.94081 | 37060 ft | 479 kts | 45° |
| 2026-04-26 12:18 | 28.13279 | 125.99932 | 37080 ft | 480 kts | 45° |
| 2026-04-26 12:18 | 28.17479 | 126.05732 | 37072 ft | 479 kts | 45° |
| 2026-04-26 12:19 | 28.21713 | 126.11571 | 37068 ft | 479 kts | 45° |
| 2026-04-26 12:19 | 28.25942 | 126.17405 | 37066 ft | 479 kts | 45° |
| 2026-04-26 12:20 | 28.30164 | 126.23254 | 37080 ft | 479 kts | 45° |
| 2026-04-26 12:20 | 28.34380 | 126.29111 | 37058 ft | 479 kts | 46° |
| 2026-04-26 12:21 | 28.38604 | 126.34968 | 37055 ft | 479 kts | 46° |
| 2026-04-26 12:21 | 28.42825 | 126.40842 | 37052 ft | 480 kts | 46° |
| 2026-04-26 12:22 | 28.47054 | 126.46726 | 37058 ft | 480 kts | 46° |
| 2026-04-26 12:22 | 28.51281 | 126.52605 | 37051 ft | 481 kts | 46° |
| 2026-04-26 12:23 | 28.55503 | 126.58509 | 37041 ft | 482 kts | 46° |
| 2026-04-26 12:23 | 28.59729 | 126.64427 | 37043 ft | 482 kts | 46° |
| 2026-04-26 12:24 | 28.63963 | 126.70351 | 37069 ft | 482 kts | 46° |
| 2026-04-26 12:24 | 28.67482 | 126.75275 | 37054 ft | 482 kts | 46° |
| 2026-04-26 12:25 | 28.73835 | 126.84181 | 37038 ft | 483 kts | 46° |
| 2026-04-26 12:25 | 28.78070 | 126.90144 | 37059 ft | 484 kts | 47° |
| 2026-04-26 12:26 | 28.82303 | 126.96120 | 37047 ft | 484 kts | 47° |
| 2026-04-26 12:26 | 28.86536 | 127.02104 | 37037 ft | 485 kts | 47° |
| 2026-04-26 12:27 | 28.90756 | 127.08051 | 37031 ft | 485 kts | 47° |
| 2026-04-26 12:27 | 28.95006 | 127.14055 | 37063 ft | 486 kts | 47° |
| 2026-04-26 12:28 | 28.99240 | 127.20072 | 37053 ft | 486 kts | 47° |
| 2026-04-26 12:28 | 29.03477 | 127.26087 | 37032 ft | 486 kts | 47° |
| 2026-04-26 12:29 | 29.07721 | 127.32112 | 37027 ft | 487 kts | 47° |
| 2026-04-26 12:30 | 29.14089 | 127.41180 | 37040 ft | 487 kts | 47° |
| 2026-04-26 12:30 | 29.18324 | 127.47232 | 37035 ft | 487 kts | 47° |
| 2026-04-26 12:31 | 29.24692 | 127.56320 | 37018 ft | 488 kts | 47° |
| 2026-04-26 12:31 | 29.28934 | 127.62397 | 37037 ft | 488 kts | 48° |
| 2026-04-26 12:32 | 29.33174 | 127.68481 | 37037 ft | 488 kts | 47° |
| 2026-04-26 12:33 | 29.39502 | 127.77559 | 37002 ft | 488 kts | 48° |
| 2026-04-26 12:33 | 29.43748 | 127.83658 | 37024 ft | 489 kts | 48° |
| 2026-04-26 12:34 | 29.47986 | 127.89764 | 37017 ft | 489 kts | 48° |
| 2026-04-26 12:34 | 29.52221 | 127.95875 | 37002 ft | 489 kts | 48° |
| 2026-04-26 12:35 | 29.56453 | 128.02002 | 37021 ft | 490 kts | 48° |
| 2026-04-26 12:35 | 29.60686 | 128.08141 | 37006 ft | 490 kts | 48° |
| 2026-04-26 12:36 | 29.64924 | 128.14286 | 36997 ft | 490 kts | 48° |
| 2026-04-26 12:36 | 29.69129 | 128.20393 | 36984 ft | 490 kts | 48° |
| 2026-04-26 12:37 | 29.73395 | 128.26588 | 36995 ft | 491 kts | 48° |
| 2026-04-26 12:37 | 29.77612 | 128.32718 | 36991 ft | 492 kts | 48° |
| 2026-04-26 12:38 | 29.81849 | 128.38903 | 36987 ft | 492 kts | 48° |
| 2026-04-26 12:38 | 29.86084 | 128.45095 | 36988 ft | 492 kts | 49° |
| 2026-04-26 12:39 | 29.90319 | 128.51296 | 37004 ft | 492 kts | 48° |
| 2026-04-26 12:39 | 29.94546 | 128.57484 | 36996 ft | 491 kts | 48° |
| 2026-04-26 12:40 | 29.98772 | 128.63676 | 36989 ft | 491 kts | 48° |
| 2026-04-26 12:40 | 30.02992 | 128.69877 | 36968 ft | 491 kts | 49° |
| 2026-04-26 12:41 | 30.07203 | 128.76090 | 36965 ft | 492 kts | 49° |
| 2026-04-26 12:41 | 30.11421 | 128.82312 | 36967 ft | 492 kts | 49° |
| 2026-04-26 12:42 | 30.15645 | 128.88547 | 36972 ft | 493 kts | 49° |
| 2026-04-26 12:42 | 30.19863 | 128.94791 | 36978 ft | 493 kts | 49° |
| 2026-04-26 12:43 | 30.24086 | 129.01047 | 36970 ft | 493 kts | 49° |
| 2026-04-26 12:43 | 30.28308 | 129.07317 | 36968 ft | 494 kts | 49° |
| 2026-04-26 12:44 | 30.32504 | 129.13543 | 36984 ft | 494 kts | 49° |
| 2026-04-26 12:44 | 30.36729 | 129.19825 | 36971 ft | 495 kts | 49° |
| 2026-04-26 12:45 | 30.40957 | 129.26129 | 36968 ft | 495 kts | 49° |
| 2026-04-26 12:45 | 30.45177 | 129.32438 | 36822 ft | 495 kts | 49° |
| 2026-04-26 12:45 | 30.47282 | 129.35588 | 36574 ft | 493 kts | 49° |
| 2026-04-26 12:46 | 30.49386 | 129.38736 | 36323 ft | 493 kts | 49° |
| 2026-04-26 12:46 | 30.51483 | 129.41878 | 36067 ft | 493 kts | 49° |
| 2026-04-26 12:46 | 30.53582 | 129.45025 | 35826 ft | 492 kts | 49° |
| 2026-04-26 12:46 | 30.55649 | 129.48121 | 35585 ft | 491 kts | 49° |
| 2026-04-26 12:47 | 30.57742 | 129.51256 | 35331 ft | 490 kts | 49° |
| 2026-04-26 12:47 | 30.59840 | 129.54396 | 34638 ft | 493 kts | 48° |
| 2026-04-26 12:47 | 30.61930 | 129.57531 | 34127 ft | 491 kts | 48° |
| 2026-04-26 12:47 | 30.64013 | 129.60665 | 33511 ft | 489 kts | 48° |
| 2026-04-26 12:48 | 30.66082 | 129.63784 | 32965 ft | 485 kts | 47° |
| 2026-04-26 12:48 | 30.68133 | 129.66884 | 32393 ft | 482 kts | 47° |
| 2026-04-26 12:48 | 30.70163 | 129.69953 | 31836 ft | 476 kts | 47° |
| 2026-04-26 12:48 | 30.72154 | 129.72962 | 31211 ft | 462 kts | 46° |
| 2026-04-26 12:49 | 30.74085 | 129.75885 | 30783 ft | 454 kts | 46° |
| 2026-04-26 12:49 | 30.76003 | 129.78787 | 30227 ft | 450 kts | 46° |
| 2026-04-26 12:49 | 30.77903 | 129.81656 | 29671 ft | 445 kts | 45° |
| 2026-04-26 12:49 | 30.79781 | 129.84489 | 29164 ft | 440 kts | 45° |
| 2026-04-26 12:50 | 30.81749 | 129.87157 | 28699 ft | 428 kts | 36° |
| 2026-04-26 12:50 | 30.84025 | 129.89304 | 28284 ft | 415 kts | 26° |
| 2026-04-26 12:50 | 30.86516 | 129.90895 | 27858 ft | 402 kts | 16° |
| 2026-04-26 12:50 | 30.89129 | 129.91918 | 27492 ft | 391 kts | 6° |
| 2026-04-26 12:51 | 30.91780 | 129.92394 | 27075 ft | 381 kts | 359° |
| 2026-04-26 12:51 | 30.94415 | 129.92665 | 26706 ft | 379 kts | 359° |
| 2026-04-26 12:51 | 30.97038 | 129.92949 | 26339 ft | 377 kts | 359° |
| 2026-04-26 12:51 | 30.99640 | 129.93237 | 25972 ft | 375 kts | 359° |
| 2026-04-26 12:52 | 31.02227 | 129.93528 | 25593 ft | 373 kts | 360° |
| 2026-04-26 12:52 | 31.04801 | 129.93819 | 25215 ft | 370 kts | 360° |
| 2026-04-26 12:52 | 31.07322 | 129.94101 | 24839 ft | 368 kts | 360° |
| 2026-04-26 12:52 | 31.09864 | 129.94385 | 24448 ft | 365 kts | 0° |
| 2026-04-26 12:53 | 31.12386 | 129.94666 | 24049 ft | 363 kts | 0° |
| 2026-04-26 12:53 | 31.14894 | 129.94942 | 23645 ft | 361 kts | 0° |
| 2026-04-26 12:53 | 31.17383 | 129.95215 | 23199 ft | 358 kts | 0° |
| 2026-04-26 12:53 | 31.19856 | 129.95486 | 22785 ft | 357 kts | 0° |
| 2026-04-26 12:54 | 31.22326 | 129.95757 | 22365 ft | 355 kts | 0° |
| 2026-04-26 12:54 | 31.24781 | 129.96025 | 21951 ft | 354 kts | 0° |
| 2026-04-26 12:54 | 31.27230 | 129.96305 | 21506 ft | 353 kts | 2° |
| 2026-04-26 12:54 | 31.29637 | 129.96959 | 21061 ft | 358 kts | 14° |
| 2026-04-26 12:55 | 31.31935 | 129.98127 | 20614 ft | 361 kts | 19° |
| 2026-04-26 12:55 | 31.34205 | 129.99368 | 20153 ft | 360 kts | 20° |
| 2026-04-26 12:55 | 31.36470 | 130.00609 | 19696 ft | 358 kts | 20° |
| 2026-04-26 12:55 | 31.38695 | 130.01829 | 19252 ft | 357 kts | 20° |
| 2026-04-26 12:56 | 31.40940 | 130.03056 | 18789 ft | 355 kts | 20° |
| 2026-04-26 12:56 | 31.43179 | 130.04278 | 18346 ft | 355 kts | 20° |
| 2026-04-26 12:56 | 31.45415 | 130.05498 | 17827 ft | 353 kts | 20° |
| 2026-04-26 12:56 | 31.47640 | 130.06711 | 17373 ft | 352 kts | 20° |
| 2026-04-26 12:57 | 31.49857 | 130.07919 | 16914 ft | 350 kts | 20° |
| 2026-04-26 12:57 | 31.52060 | 130.09117 | 16461 ft | 348 kts | 20° |
| 2026-04-26 12:57 | 31.54250 | 130.10314 | 16002 ft | 347 kts | 20° |
| 2026-04-26 12:58 | 31.58604 | 130.12698 | 15113 ft | 343 kts | 20° |
| 2026-04-26 12:58 | 31.60759 | 130.13875 | 14838 ft | 341 kts | 20° |
| 2026-04-26 12:58 | 31.62917 | 130.15053 | 14704 ft | 342 kts | 21° |
| 2026-04-26 12:58 | 31.65071 | 130.16231 | 14557 ft | 342 kts | 21° |
| 2026-04-26 12:59 | 31.67224 | 130.17413 | 14387 ft | 341 kts | 21° |
| 2026-04-26 12:59 | 31.69372 | 130.18594 | 14232 ft | 340 kts | 21° |
| 2026-04-26 12:59 | 31.71488 | 130.19762 | 14069 ft | 340 kts | 21° |
| 2026-04-26 12:59 | 31.73631 | 130.20943 | 13913 ft | 339 kts | 21° |
| 2026-04-26 13:00 | 31.75765 | 130.22117 | 13740 ft | 339 kts | 21° |
| 2026-04-26 13:00 | 31.77902 | 130.23288 | 13572 ft | 338 kts | 21° |
| 2026-04-26 13:00 | 31.80028 | 130.24455 | 13403 ft | 337 kts | 21° |
| 2026-04-26 13:00 | 31.82157 | 130.25623 | 13247 ft | 337 kts | 21° |
| 2026-04-26 13:01 | 31.84273 | 130.26787 | 13092 ft | 335 kts | 21° |
| 2026-04-26 13:01 | 31.86383 | 130.27947 | 12927 ft | 334 kts | 21° |
| 2026-04-26 13:01 | 31.88481 | 130.29101 | 12769 ft | 333 kts | 21° |
| 2026-04-26 13:01 | 31.90576 | 130.30255 | 12609 ft | 332 kts | 21° |
| 2026-04-26 13:02 | 31.92666 | 130.31409 | 12451 ft | 332 kts | 21° |
| 2026-04-26 13:02 | 31.94756 | 130.32564 | 12292 ft | 331 kts | 21° |
| 2026-04-26 13:02 | 31.96838 | 130.33716 | 12129 ft | 330 kts | 21° |
| 2026-04-26 13:02 | 31.98960 | 130.34733 | 11906 ft | 329 kts | 16° |
| 2026-04-26 13:03 | 32.01108 | 130.35619 | 11664 ft | 325 kts | 15° |
| 2026-04-26 13:03 | 32.03245 | 130.36463 | 11416 ft | 323 kts | 15° |
| 2026-04-26 13:03 | 32.05380 | 130.37292 | 11168 ft | 322 kts | 15° |
| 2026-04-26 13:03 | 32.07475 | 130.38108 | 10929 ft | 321 kts | 15° |
| 2026-04-26 13:04 | 32.09593 | 130.38937 | 10688 ft | 320 kts | 15° |
| 2026-04-26 13:04 | 32.11706 | 130.39771 | 10448 ft | 319 kts | 15° |
| 2026-04-26 13:04 | 32.13809 | 130.40605 | 10210 ft | 318 kts | 16° |
| 2026-04-26 13:04 | 32.15904 | 130.41441 | 9978 ft | 317 kts | 16° |
| 2026-04-26 13:05 | 32.17985 | 130.42274 | 9837 ft | 312 kts | 16° |
| 2026-04-26 13:05 | 32.20001 | 130.43083 | 9707 ft | 299 kts | 17° |
| 2026-04-26 13:05 | 32.21904 | 130.43847 | 9569 ft | 278 kts | 16° |
| 2026-04-26 13:05 | 32.23702 | 130.44570 | 9440 ft | 269 kts | 16° |
| 2026-04-26 13:06 | 32.25467 | 130.45277 | 9310 ft | 267 kts | 16° |
| 2026-04-26 13:06 | 32.27184 | 130.45962 | 9175 ft | 256 kts | 16° |
| 2026-04-26 13:06 | 32.28867 | 130.46633 | 9045 ft | 254 kts | 16° |
| 2026-04-26 13:06 | 32.30540 | 130.47302 | 8922 ft | 253 kts | 16° |
| 2026-04-26 13:07 | 32.32206 | 130.47969 | 8809 ft | 251 kts | 16° |
| 2026-04-26 13:07 | 32.33846 | 130.48629 | 8674 ft | 248 kts | 16° |
| 2026-04-26 13:07 | 32.35479 | 130.49284 | 8547 ft | 247 kts | 16° |
| 2026-04-26 13:07 | 32.37103 | 130.49935 | 8422 ft | 245 kts | 17° |
| 2026-04-26 13:08 | 32.38715 | 130.50581 | 8298 ft | 244 kts | 16° |
| 2026-04-26 13:08 | 32.40320 | 130.51222 | 8171 ft | 243 kts | 16° |
| 2026-04-26 13:08 | 32.41893 | 130.51849 | 8045 ft | 240 kts | 16° |
| 2026-04-26 13:08 | 32.43460 | 130.52478 | 7930 ft | 236 kts | 16° |
| 2026-04-26 13:09 | 32.45012 | 130.53101 | 7790 ft | 235 kts | 17° |
| 2026-04-26 13:09 | 32.46560 | 130.53725 | 7672 ft | 234 kts | 17° |
| 2026-04-26 13:09 | 32.48102 | 130.54346 | 7544 ft | 234 kts | 17° |
| 2026-04-26 13:09 | 32.49640 | 130.54963 | 7318 ft | 233 kts | 16° |
| 2026-04-26 13:10 | 32.51170 | 130.55577 | 7034 ft | 232 kts | 17° |
| 2026-04-26 13:10 | 32.52700 | 130.56193 | 6734 ft | 232 kts | 17° |
| 2026-04-26 13:10 | 32.54229 | 130.56811 | 6430 ft | 232 kts | 17° |
| 2026-04-26 13:10 | 32.55744 | 130.57422 | 6229 ft | 227 kts | 17° |
| 2026-04-26 13:11 | 32.57247 | 130.58029 | 5839 ft | 230 kts | 17° |
| 2026-04-26 13:11 | 32.58752 | 130.58636 | 5611 ft | 225 kts | 17° |
| 2026-04-26 13:11 | 32.60241 | 130.59235 | 5247 ft | 228 kts | 17° |
| 2026-04-26 13:11 | 32.61735 | 130.59839 | 5001 ft | 224 kts | 17° |
| 2026-04-26 13:12 | 32.63197 | 130.60431 | 4866 ft | 221 kts | 17° |
| 2026-04-26 13:12 | 32.64162 | 130.60821 | 4796 ft | 221 kts | 17° |
| 2026-04-26 13:12 | 32.66095 | 130.61600 | 4662 ft | 221 kts | 17° |
| 2026-04-26 13:12 | 32.67552 | 130.62187 | 4567 ft | 221 kts | 18° |
| 2026-04-26 13:13 | 32.69004 | 130.62775 | 4467 ft | 221 kts | 18° |
| 2026-04-26 13:13 | 32.70456 | 130.63363 | 4362 ft | 220 kts | 18° |
| 2026-04-26 13:13 | 32.71907 | 130.63947 | 4270 ft | 220 kts | 18° |
| 2026-04-26 13:13 | 32.72868 | 130.64334 | 4211 ft | 220 kts | 17° |
| 2026-04-26 13:14 | 32.74317 | 130.64927 | 4099 ft | 219 kts | 20° |
| 2026-04-26 13:14 | 32.75578 | 130.65881 | 3886 ft | 211 kts | 43° |
| 2026-04-26 13:14 | 32.76389 | 130.67252 | 3672 ft | 197 kts | 62° |
| 2026-04-26 13:14 | 32.76969 | 130.68695 | 3431 ft | 191 kts | 63° |
| 2026-04-26 13:15 | 32.77538 | 130.70105 | 3169 ft | 188 kts | 63° |
| 2026-04-26 13:15 | 32.78099 | 130.71498 | 2920 ft | 186 kts | 63° |
| 2026-04-26 13:15 | 32.78647 | 130.72858 | 2678 ft | 175 kts | 63° |
| 2026-04-26 13:15 | 32.79149 | 130.74106 | 2450 ft | 160 kts | 63° |
| 2026-04-26 13:16 | 32.79615 | 130.75264 | 2241 ft | 151 kts | 62° |
| 2026-04-26 13:16 | 32.80063 | 130.76376 | 2059 ft | 144 kts | 62° |
| 2026-04-26 13:16 | 32.80490 | 130.77438 | 1870 ft | 141 kts | 62° |
| 2026-04-26 13:16 | 32.80909 | 130.78478 | 1689 ft | 139 kts | 63° |
| 2026-04-26 13:17 | 32.81724 | 130.80548 | 1268 ft | 137 kts | 63° |
| 2026-04-26 13:17 | 32.82126 | 130.81564 | 1083 ft | 135 kts | 63° |
| 2026-04-26 13:18 | 32.82939 | 130.83544 | 746 ft | 131 kts | 65° |
| 2026-04-26 13:18 | 32.83329 | 130.84514 | 628 ft | 122 kts | 62° |
| 2026-04-26 13:18 | 32.83710 | 130.85462 | 639 ft | 25 kts | 77° |
| 2026-04-26 13:19 | 32.83625 | 130.85568 | 638 ft | 9 kts | 154° |
| 2026-04-26 13:19 | 32.83607 | 130.85641 | 640 ft | 11 kts | 73° |
| 2026-04-26 13:19 | 32.83639 | 130.85729 | 641 ft | 13 kts | 66° |
| 2026-04-26 13:19 | 32.83680 | 130.85829 | 641 ft | 15 kts | 64° |
| 2026-04-26 13:20 | 32.83721 | 130.85945 | 642 ft | 15 kts | 86° |
| 2026-04-26 13:20 | 32.83648 | 130.86005 | 643 ft | 13 kts | 155° |
| 2026-04-26 13:20 | 32.83598 | 130.86033 | 643 ft | 0 kts | 154° |